Time;durP1;ratioP1;P1;durP2;ratioP2;P2;SDS_P1;SDS_P2;PMS_P1;PMS_P2;Temp;Humidity;BMP_temperature;BMP_pressure;BME280_temperature;BME280_humidity;BME280_pressure;Samples;Min_cycle;Max_cycle;Signal;HPM_P1;HPM_P2
2024/04/13 00:02:07;;;;;;;4.10;2.40;;;20.00;96.70;;;;;;10661072;26;20039;-74
2024/04/13 00:06:58;;;;;;;3.83;2.47;;;19.90;96.60;;;;;;10657526;26;20009;-76
2024/04/13 00:11:48;;;;;;;5.03;2.17;;;19.80;96.40;;;;;;10677563;26;20001;-71
2024/04/13 00:16:39;;;;;;;3.08;2.38;;;19.70;96.30;;;;;;10671896;26;20074;-72
2024/04/13 00:21:31;;;;;;;3.97;3.15;;;19.70;96.30;;;;;;10674785;26;20001;-73
2024/04/13 00:26:25;;;;;;;3.35;2.60;;;19.60;96.10;;;;;;10672967;26;20095;-71
2024/04/13 00:31:15;;;;;;;5.15;2.95;;;19.50;96.10;;;;;;10677871;26;19993;-75
2024/04/13 00:36:06;;;;;;;5.20;2.08;;;19.60;96.00;;;;;;10676278;26;19993;-73
2024/04/13 00:40:57;;;;;;;4.03;2.42;;;19.50;96.00;;;;;;10655785;26;20446;-74
2024/04/13 00:45:48;;;;;;;3.28;2.75;;;19.50;95.90;;;;;;10677665;26;20005;-72
2024/04/13 00:50:40;;;;;;;5.00;2.38;;;19.40;96.00;;;;;;10671500;26;20028;-70
2024/04/13 00:55:31;;;;;;;5.32;2.50;;;19.30;96.00;;;;;;10677190;26;20013;-73
2024/04/13 01:00:25;;;;;;;3.38;2.15;;;19.20;96.00;;;;;;10645120;26;20096;-69
2024/04/13 01:05:18;;;;;;;5.15;2.53;;;19.10;96.10;;;;;;10674995;26;20598;-68
2024/04/13 01:10:16;;;;;;;4.13;2.78;;;19.10;96.50;;;;;;10676253;26;20005;-73
2024/04/13 01:15:07;;;;;;;3.63;2.28;;;19.00;96.20;;;;;;10637693;26;20060;-69
2024/04/13 01:19:58;;;;;;;5.97;2.53;;;19.00;96.30;;;;;;10676054;26;20001;-70
2024/04/13 01:24:50;;;;;;;4.65;2.63;;;19.00;96.40;;;;;;10676308;26;20005;-68
2024/04/13 01:29:41;;;;;;;5.97;3.13;;;19.00;96.30;;;;;;10676530;26;20012;-71
2024/04/13 01:34:32;;;;;;;5.20;2.78;;;19.00;96.40;;;;;;10623793;26;20420;-67
2024/04/13 01:39:22;;;;;;;4.35;2.83;;;18.90;96.40;;;;;;10680773;26;20454;-69
2024/04/13 01:44:13;;;;;;;3.38;2.50;;;18.90;96.40;;;;;;10682487;26;20008;-69
2024/04/13 01:49:05;;;;;;;3.97;3.17;;;18.80;96.40;;;;;;10682302;26;20541;-68
2024/04/13 01:53:55;;;;;;;4.15;2.90;;;18.80;96.50;;;;;;10681535;26;20007;-68
2024/04/13 01:58:46;;;;;;;9.13;2.80;;;18.90;96.50;;;;;;10677308;26;20011;-67
2024/04/13 02:03:37;;;;;;;5.80;2.65;;;18.80;96.50;;;;;;10681909;26;19996;-67
2024/04/13 02:08:28;;;;;;;4.00;2.53;;;18.80;96.70;;;;;;10680232;26;20011;-68
2024/04/13 02:13:19;;;;;;;4.97;3.08;;;18.80;96.70;;;;;;10677867;26;20035;-70
2024/04/13 02:18:13;;;;;;;4.57;2.35;;;18.80;96.70;;;;;;10681941;26;20000;-68
2024/04/13 02:23:04;;;;;;;4.03;2.90;;;18.60;96.80;;;;;;10680858;26;20005;-69
2024/04/13 02:27:56;;;;;;;8.95;3.42;;;18.50;96.90;;;;;;10673765;26;20036;-68
2024/04/13 02:32:46;;;;;;;5.43;3.33;;;18.60;96.90;;;;;;10675298;26;20079;-69
2024/04/13 02:37:38;;;;;;;6.60;3.70;;;18.60;97.00;;;;;;10675780;26;20025;-69
2024/04/13 02:42:28;;;;;;;4.53;2.80;;;18.50;97.10;;;;;;10679471;26;20005;-70
2024/04/13 02:47:19;;;;;;;7.60;2.72;;;18.50;97.10;;;;;;10658967;26;20016;-67
2024/04/13 02:52:12;;;;;;;5.90;2.83;;;18.50;97.30;;;;;;10680802;26;20024;-69
2024/04/13 02:57:06;;;;;;;7.03;3.10;;;18.40;97.30;;;;;;10680907;26;20012;-71
2024/04/13 03:01:57;;;;;;;8.20;3.15;;;18.40;97.40;;;;;;10676777;26;20030;-68
2024/04/13 03:06:47;;;;;;;9.00;3.25;;;18.30;97.60;;;;;;10690935;26;20488;-69
2024/04/13 03:11:38;;;;;;;5.97;3.70;;;18.30;98.00;;;;;;10677191;26;20013;-68
2024/04/13 03:16:29;;;;;;;4.93;3.65;;;18.10;97.80;;;;;;10680283;26;20004;-68
2024/04/13 03:21:24;;;;;;;4.15;3.17;;;17.90;98.10;;;;;;10674170;26;21254;-68
2024/04/13 03:26:15;;;;;;;4.57;3.45;;;18.00;98.10;;;;;;10679001;26;20005;-74
2024/04/13 03:31:05;;;;;;;5.03;3.42;;;17.90;98.20;;;;;;10684840;26;20012;-74
2024/04/13 03:36:06;;;;;;;4.22;3.05;;;17.80;98.30;;;;;;10678073;26;20008;-74
2024/04/13 03:41:05;;;;;;;6.18;3.08;;;17.90;98.40;;;;;;10668945;26;20033;-70
2024/04/13 03:45:57;;;;;;;4.95;3.50;;;17.90;98.30;;;;;;10679319;26;20016;-70
2024/04/13 03:50:47;;;;;;;4.57;3.10;;;17.80;98.30;;;;;;10677621;26;20016;-69
2024/04/13 03:55:38;;;;;;;4.63;3.00;;;17.70;98.30;;;;;;10678756;26;20005;-67
2024/04/13 04:00:28;;;;;;;3.47;2.40;;;17.60;98.30;;;;;;10678710;26;20004;-71
2024/04/13 04:05:22;;;;;;;3.53;2.67;;;17.60;98.30;;;;;;10679161;26;20001;-69
2024/04/13 04:10:13;;;;;;;5.55;3.20;;;17.50;98.30;;;;;;10678650;26;20023;-68
2024/04/13 04:15:04;;;;;;;6.57;3.08;;;17.50;98.30;;;;;;10678463;26;20472;-70
2024/04/13 04:19:54;;;;;;;3.78;2.17;;;17.50;98.30;;;;;;10678161;26;20020;-73
2024/04/13 04:24:45;;;;;;;5.35;3.20;;;17.40;98.20;;;;;;10676958;26;20480;-69
2024/04/13 04:29:37;;;;;;;4.88;2.75;;;17.40;98.30;;;;;;10676621;26;20001;-72
2024/04/13 04:34:27;;;;;;;3.50;2.80;;;17.30;98.20;;;;;;10684222;26;19993;-67
2024/04/13 04:39:18;;;;;;;3.13;2.83;;;17.20;98.20;;;;;;10677728;26;19994;-68
2024/04/13 04:44:09;;;;;;;2.08;1.88;;;17.20;98.20;;;;;;10677800;26;20000;-71
2024/04/13 04:48:59;;;;;;;2.90;2.17;;;17.00;98.30;;;;;;10655165;26;20028;-68
2024/04/13 04:53:56;;;;;;;2.92;2.50;;;17.00;98.20;;;;;;10677636;26;20016;-69
2024/04/13 04:58:47;;;;;;;3.25;2.42;;;17.00;98.10;;;;;;10676998;26;20004;-70
2024/04/13 05:03:37;;;;;;;4.45;2.03;;;16.90;98.10;;;;;;10676841;26;20032;-69
2024/04/13 05:08:29;;;;;;;4.18;2.10;;;16.70;98.00;;;;;;10676280;26;20020;-73
2024/04/13 05:13:20;;;;;;;3.35;2.20;;;16.60;98.10;;;;;;10678718;26;20033;-72
2024/04/13 05:18:10;;;;;;;5.00;1.98;;;16.70;98.10;;;;;;10682933;26;20012;-74
2024/04/13 05:23:01;;;;;;;3.63;2.13;;;16.60;98.10;;;;;;10682181;26;20087;-67
2024/04/13 05:27:51;;;;;;;4.68;2.85;;;16.60;98.10;;;;;;10671736;26;19993;-70
2024/04/13 05:32:42;;;;;;;4.25;2.72;;;16.40;98.10;;;;;;10675667;26;20004;-70
2024/04/13 05:37:34;;;;;;;3.15;2.03;;;16.50;98.10;;;;;;10682698;26;20008;-69
2024/04/13 05:42:27;;;;;;;5.13;2.20;;;16.40;98.10;;;;;;10682046;26;20001;-69
2024/04/13 05:47:18;;;;;;;4.32;2.15;;;16.40;98.20;;;;;;10682604;26;20462;-68
2024/04/13 05:52:09;;;;;;;3.85;2.35;;;16.40;98.20;;;;;;10649599;26;20005;-70
2024/04/13 05:57:02;;;;;;;2.67;2.22;;;16.40;98.30;;;;;;10681156;26;20484;-68
2024/04/13 06:01:53;;;;;;;3.47;2.17;;;16.60;98.40;;;;;;10681941;26;20005;-67
2024/04/13 06:06:44;;;;;;;3.08;2.00;;;16.70;98.40;;;;;;10682183;26;20096;-72
2024/04/13 06:11:34;;;;;;;5.18;2.53;;;16.70;98.30;;;;;;10665760;26;20406;-67
2024/04/13 06:16:25;;;;;;;3.72;2.97;;;16.70;98.40;;;;;;10680361;26;20020;-67
2024/04/13 06:21:16;;;;;;;3.55;2.28;;;16.80;98.40;;;;;;10669439;26;20099;-68
2024/04/13 06:26:07;;;;;;;4.18;2.78;;;16.90;98.40;;;;;;10678146;26;20007;-68
2024/04/13 06:30:57;;;;;;;3.47;2.40;;;16.90;98.50;;;;;;10667079;26;19997;-68
2024/04/13 06:35:51;;;;;;;2.88;2.63;;;16.90;98.50;;;;;;10681284;26;20020;-67
2024/04/13 06:40:43;;;;;;;4.00;2.15;;;16.90;98.50;;;;;;10679540;26;20396;-68
2024/04/13 06:45:35;;;;;;;4.65;2.28;;;16.90;98.50;;;;;;10681317;26;19997;-70
2024/04/13 06:50:26;;;;;;;4.15;2.50;;;17.00;98.60;;;;;;10680746;26;20005;-70
2024/04/13 06:55:16;;;;;;;3.85;2.25;;;17.00;98.50;;;;;;10681759;26;20001;-71
2024/04/13 07:00:07;;;;;;;4.72;2.40;;;17.10;98.60;;;;;;10680462;26;20527;-69
2024/04/13 07:04:58;;;;;;;4.28;2.60;;;17.10;98.70;;;;;;10680310;26;20442;-69
2024/04/13 07:09:49;;;;;;;3.60;2.28;;;17.10;98.60;;;;;;10680579;26;20005;-73
2024/04/13 07:14:39;;;;;;;3.33;2.33;;;17.20;98.60;;;;;;10680357;26;20461;-69
2024/04/13 07:19:33;;;;;;;3.55;2.25;;;17.30;98.70;;;;;;10679286;26;20729;-68
2024/04/13 07:24:27;;;;;;;4.97;2.25;;;17.40;98.60;;;;;;10677429;26;20663;-69
2024/04/13 07:29:17;;;;;;;4.60;2.50;;;17.50;98.60;;;;;;10678484;26;19997;-71
2024/04/13 07:34:08;;;;;;;6.38;3.47;;;17.60;98.60;;;;;;10676869;26;20057;-68
2024/04/13 07:38:59;;;;;;;3.95;2.17;;;17.70;98.60;;;;;;10678822;26;20063;-67
2024/04/13 07:43:50;;;;;;;4.78;2.60;;;17.80;98.60;;;;;;10676312;26;20019;-67
2024/04/13 07:48:41;;;;;;;4.13;2.63;;;17.90;98.60;;;;;;10635815;26;20024;-70
2024/04/13 07:53:35;;;;;;;4.10;2.47;;;17.90;98.70;;;;;;10665049;26;20020;-68
2024/04/13 07:58:29;;;;;;;4.00;2.90;;;17.90;98.70;;;;;;10676296;26;20017;-70
2024/04/13 08:03:20;;;;;;;5.47;2.40;;;17.90;98.80;;;;;;10636527;26;20675;-71
2024/04/13 08:08:10;;;;;;;4.15;2.50;;;18.10;98.80;;;;;;10678536;26;20001;-68
2024/04/13 08:13:01;;;;;;;6.85;3.53;;;18.20;98.90;;;;;;10665601;26;20079;-72
2024/04/13 08:17:52;;;;;;;8.88;3.10;;;18.20;98.90;;;;;;10678047;26;20012;-69
2024/04/13 08:22:42;;;;;;;7.00;3.45;;;18.20;98.90;;;;;;10677489;26;20012;-68
2024/04/13 08:27:35;;;;;;;3.67;2.38;;;18.30;99.00;;;;;;10672384;26;20071;-69
2024/04/13 08:32:25;;;;;;;3.13;2.67;;;18.30;99.00;;;;;;10676773;26;19997;-69
2024/04/13 08:37:17;;;;;;;3.75;2.63;;;18.40;99.00;;;;;;10675374;26;20005;-65
2024/04/13 08:42:10;;;;;;;5.32;2.10;;;18.50;99.00;;;;;;10670404;26;20004;-66
2024/04/13 08:47:02;;;;;;;7.05;3.80;;;18.60;99.10;;;;;;10686588;26;20005;-68
2024/04/13 08:51:53;;;;;;;4.03;2.42;;;18.70;99.10;;;;;;10654862;26;20033;-67
2024/04/13 08:56:45;;;;;;;3.88;2.00;;;18.80;99.10;;;;;;10670520;26;20008;-65
2024/04/13 09:01:41;;;;;;;3.40;2.20;;;18.80;99.20;;;;;;10663836;26;20571;-68
2024/04/13 09:06:31;;;;;;;3.97;2.08;;;18.80;99.30;;;;;;10654519;26;19997;-66
2024/04/13 09:11:22;;;;;;;6.07;3.25;;;18.90;99.30;;;;;;10676901;26;20024;-65
2024/04/13 09:16:13;;;;;;;3.88;1.80;;;18.90;99.30;;;;;;10710819;21;20111;-68
2024/04/13 09:21:04;;;;;;;3.58;1.92;;;18.90;99.40;;;;;;10736125;26;20094;-68
2024/04/13 09:26:05;;;;;;;4.53;2.20;;;19.00;99.40;;;;;;10743996;26;20089;-76
2024/04/13 09:30:57;;;;;;;3.83;2.15;;;19.00;99.50;;;;;;10744319;26;20012;-74
2024/04/13 09:35:59;;;;;;;5.43;2.67;;;19.10;99.50;;;;;;10744219;26;20000;-74
2024/04/13 09:40:59;;;;;;;5.03;2.80;;;19.10;99.60;;;;;;10736079;26;19996;-74
2024/04/13 09:46:01;;;;;;;3.33;1.95;;;19.30;99.60;;;;;;10713707;26;20338;-74
2024/04/13 09:50:52;;;;;;;3.13;2.30;;;19.30;99.60;;;;;;10744736;26;20044;-73
2024/04/13 09:55:43;;;;;;;3.35;2.30;;;19.40;99.60;;;;;;10751087;26;20440;-74
2024/04/13 10:00:37;;;;;;;4.55;2.20;;;19.40;99.90;;;;;;10755504;26;20613;-74
2024/04/13 10:05:32;;;;;;;2.83;1.77;;;19.50;99.70;;;;;;10772847;26;20430;-75
2024/04/13 10:10:26;;;;;;;3.03;1.52;;;19.40;99.80;;;;;;10765962;26;20023;-69
2024/04/13 10:15:17;;;;;;;2.38;2.10;;;19.50;99.80;;;;;;10750183;26;20008;-69
2024/04/13 10:20:08;;;;;;;4.47;1.80;;;19.50;99.80;;;;;;10745635;26;20062;-73
2024/04/13 10:25:06;;;;;;;4.78;2.08;;;19.60;99.90;;;;;;10743387;26;20438;-73
2024/04/13 10:30:00;;;;;;;3.63;1.90;;;19.70;99.90;;;;;;10742653;26;20008;-73
2024/04/13 10:34:51;;;;;;;3.73;1.97;;;19.70;99.90;;;;;;10749007;26;20007;-70
2024/04/13 10:39:52;;;;;;;4.70;1.95;;;19.80;99.90;;;;;;10742602;26;20004;-69
2024/04/13 10:44:45;;;;;;;2.75;1.90;;;19.80;99.90;;;;;;10749323;26;20012;-68
2024/04/13 10:49:39;;;;;;;3.75;1.80;;;19.90;99.90;;;;;;10749219;26;20483;-70
2024/04/13 10:54:29;;;;;;;3.83;1.60;;;20.00;99.90;;;;;;10746516;26;20015;-68
2024/04/13 10:59:20;;;;;;;2.78;2.42;;;20.10;99.80;;;;;;10718086;26;20023;-69
2024/04/13 11:04:13;;;;;;;3.15;1.88;;;20.10;99.80;;;;;;10747505;26;19996;-69
2024/04/13 11:09:04;;;;;;;2.70;1.65;;;20.20;99.80;;;;;;10728570;26;20004;-74
2024/04/13 11:13:55;;;;;;;2.65;1.67;;;20.40;99.70;;;;;;10748653;26;19996;-69
2024/04/13 11:18:45;;;;;;;2.60;1.77;;;20.40;99.60;;;;;;10746396;26;20119;-68
2024/04/13 11:23:37;;;;;;;5.25;1.77;;;20.40;99.60;;;;;;10692659;26;20349;-68
2024/04/13 11:28:28;;;;;;;3.67;1.70;;;20.40;99.50;;;;;;10714018;26;20000;-68
2024/04/13 11:33:19;;;;;;;4.00;2.08;;;20.60;99.50;;;;;;10749399;26;20127;-67
2024/04/13 11:38:17;;;;;;;3.45;1.48;;;20.60;99.40;;;;;;10758351;26;19996;-69
2024/04/13 11:43:07;;;;;;;2.83;1.50;;;20.60;99.40;;;;;;10773948;26;20003;-66
2024/04/13 11:47:59;;;;;;;4.10;1.77;;;20.60;99.30;;;;;;10758847;26;20018;-67
2024/04/13 11:52:50;;;;;;;2.80;1.73;;;20.70;99.30;;;;;;10744925;26;20078;-67
2024/04/13 11:57:47;;;;;;;7.22;1.70;;;20.80;99.20;;;;;;10746040;26;20044;-67
2024/04/13 12:02:38;;;;;;;2.50;1.67;;;20.90;99.10;;;;;;10744348;26;20015;-70
2024/04/13 12:07:28;;;;;;;1.80;1.38;;;21.00;99.00;;;;;;10729814;26;20014;-72
2024/04/13 12:12:19;;;;;;;3.03;2.08;;;21.00;99.10;;;;;;10701506;26;20012;-70
2024/04/13 12:17:10;;;;;;;2.13;1.70;;;21.10;99.10;;;;;;10743925;26;20091;-73
2024/04/13 12:22:00;;;;;;;3.40;1.98;;;21.30;98.90;;;;;;10744052;26;20149;-70
2024/04/13 12:26:51;;;;;;;2.85;1.20;;;21.40;98.90;;;;;;10727943;26;20127;-67
2024/04/13 12:31:42;;;;;;;2.72;1.52;;;21.70;98.80;;;;;;10735017;26;20125;-66
2024/04/13 12:36:36;;;;;;;2.83;1.30;;;21.70;98.70;;;;;;10719687;26;19996;-64
2024/04/13 12:41:26;;;;;;;1.80;1.10;;;21.80;98.80;;;;;;10690898;26;20331;-71
2024/04/13 12:46:17;;;;;;;3.58;1.02;;;21.80;98.50;;;;;;10699113;26;19996;-73
2024/04/13 12:51:08;;;;;;;1.65;1.33;;;21.90;98.40;;;;;;10750739;26;20505;-76
2024/04/13 12:55:59;;;;;;;6.43;1.60;;;22.00;98.30;;;;;;10745591;26;20016;-71
2024/04/13 13:00:49;;;;;;;3.22;1.38;;;22.10;98.10;;;;;;10731995;26;20008;-76
2024/04/13 13:05:41;;;;;;;2.90;1.60;;;22.30;97.90;;;;;;10730332;26;20060;-70
2024/04/13 13:10:32;;;;;;;1.77;1.40;;;22.60;97.80;;;;;;10745312;26;20004;-74
2024/04/13 13:15:22;;;;;;;2.00;1.17;;;22.80;97.60;;;;;;10745496;26;20001;-70
2024/04/13 13:20:13;;;;;;;2.80;1.13;;;22.90;97.40;;;;;;10745097;26;19996;-76
2024/04/13 13:25:04;;;;;;;2.58;1.60;;;23.00;97.30;;;;;;10743824;26;20032;-71
2024/04/13 13:29:54;;;;;;;3.42;1.48;;;23.30;97.10;;;;;;10703091;26;19996;-74
2024/04/13 13:34:45;;;;;;;1.80;1.15;;;23.60;96.80;;;;;;10752718;26;20072;-75
2024/04/13 13:39:36;;;;;;;1.90;1.02;;;23.90;96.70;;;;;;10752054;26;20007;-70
2024/04/13 13:44:27;;;;;;;3.28;1.40;;;24.10;96.50;;;;;;10721131;26;20011;-69
2024/04/13 13:49:18;;;;;;;2.92;1.13;;;24.20;96.30;;;;;;10751389;26;20008;-70
2024/04/13 13:54:09;;;;;;;2.33;1.15;;;24.50;96.00;;;;;;10718060;26;20019;-70
2024/04/13 13:59:00;;;;;;;1.48;1.05;;;24.80;95.80;;;;;;10749189;26;20045;-69
2024/04/13 14:03:51;;;;;;;1.77;1.30;;;25.10;95.50;;;;;;10751402;26;20001;-69
2024/04/13 14:08:43;;;;;;;1.50;1.17;;;25.30;95.30;;;;;;10751145;26;20043;-70
2024/04/13 14:13:34;;;;;;;3.28;1.20;;;25.40;95.10;;;;;;10726070;26;19997;-69
2024/04/13 14:18:24;;;;;;;2.83;1.25;;;25.60;94.90;;;;;;10737709;26;20000;-69
2024/04/13 14:23:17;;;;;;;3.55;1.20;;;25.90;94.80;;;;;;10733715;26;20475;-71
2024/04/13 14:28:08;;;;;;;1.23;1.02;;;26.10;94.60;;;;;;10732964;26;20052;-70
2024/04/13 14:32:59;;;;;;;1.30;1.10;;;26.30;94.40;;;;;;10750275;26;20509;-69
2024/04/13 14:37:50;;;;;;;2.55;1.17;;;26.80;94.20;;;;;;10746733;26;20016;-72
2024/04/13 14:42:41;;;;;;;4.15;1.67;;;27.10;94.00;;;;;;10750126;26;20513;-69
2024/04/13 14:47:32;;;;;;;2.28;1.50;;;27.50;93.80;;;;;;10749773;26;20020;-70
2024/04/13 14:52:23;;;;;;;2.33;1.23;;;27.80;93.60;;;;;;10739381;26;20559;-70
2024/04/13 14:57:13;;;;;;;3.65;1.20;;;28.10;93.30;;;;;;10749922;26;19996;-70
2024/04/13 15:02:04;;;;;;;1.80;1.10;;;28.20;93.10;;;;;;10749461;26;20003;-69
2024/04/13 15:06:55;;;;;;;2.92;1.48;;;28.30;92.90;;;;;;10728363;26;20008;-70
2024/04/13 15:11:45;;;;;;;2.35;1.63;;;28.40;92.80;;;;;;10749477;26;20054;-69
2024/04/13 15:16:36;;;;;;;2.83;1.27;;;28.50;92.60;;;;;;10748824;26;20031;-70
2024/04/13 15:21:27;;;;;;;4.28;1.60;;;28.70;92.50;;;;;;10708331;26;19996;-69
2024/04/13 15:26:17;;;;;;;2.95;1.17;;;28.80;92.30;;;;;;10740675;26;20108;-69
2024/04/13 15:31:08;;;;;;;3.22;1.50;;;29.00;92.10;;;;;;10746653;26;20003;-70
2024/04/13 15:35:59;;;;;;;3.00;1.70;;;29.30;91.90;;;;;;10746411;26;20007;-72
2024/04/13 15:40:50;;;;;;;2.65;1.10;;;29.40;91.80;;;;;;10745019;26;20438;-69
2024/04/13 15:45:41;;;;;;;3.40;1.80;;;29.40;91.70;;;;;;10732275;26;20083;-70
2024/04/13 15:50:37;;;;;;;3.08;1.50;;;29.90;91.40;;;;;;10730226;26;20000;-71
2024/04/13 15:55:28;;;;;;;3.05;1.40;;;29.70;91.30;;;;;;10745153;26;20000;-72
2024/04/13 16:00:20;;;;;;;2.13;1.30;;;29.70;91.20;;;;;;10745336;26;20023;-68
2024/04/13 16:05:11;;;;;;;4.05;1.85;;;29.60;91.10;;;;;;10710177;26;20004;-71
2024/04/13 16:10:02;;;;;;;3.72;1.30;;;29.80;90.90;;;;;;10742877;26;20000;-69
2024/04/13 16:14:52;;;;;;;3.00;1.50;;;29.80;90.70;;;;;;10714157;26;20000;-72
2024/04/13 16:19:43;;;;;;;2.90;1.48;;;29.50;90.70;;;;;;10740318;26;19997;-71
2024/04/13 16:24:35;;;;;;;4.80;1.20;;;29.20;90.70;;;;;;10746819;26;20074;-72
2024/04/13 16:29:28;;;;;;;6.28;1.60;;;29.40;90.50;;;;;;10729236;26;20032;-75
2024/04/13 16:34:19;;;;;;;3.35;1.60;;;29.60;90.30;;;;;;10705824;26;20001;-71
2024/04/13 16:39:09;;;;;;;2.65;1.38;;;29.80;90.20;;;;;;10742454;26;20382;-75
2024/04/13 16:44:00;;;;;;;2.45;1.80;;;30.40;90.00;;;;;;10738115;26;20000;-69
2024/04/13 16:48:51;;;;;;;3.92;1.58;;;30.50;90.00;;;;;;10714044;26;20079;-75
2024/04/13 16:53:41;;;;;;;2.60;1.88;;;30.30;89.80;;;;;;10745638;26;20012;-73
2024/04/13 16:58:32;;;;;;;2.35;1.42;;;30.20;89.90;;;;;;10731521;26;20795;-74
2024/04/13 17:03:23;;;;;;;4.70;1.60;;;30.10;89.90;;;;;;10729724;26;19996;-67
2024/04/13 17:08:16;;;;;;;1.80;1.65;;;30.20;89.70;;;;;;10702439;26;20005;-69
2024/04/13 17:13:06;;;;;;;2.08;1.42;;;30.10;89.60;;;;;;10729131;26;20039;-69
2024/04/13 17:17:57;;;;;;;3.15;1.70;;;29.80;89.40;;;;;;10741289;26;20016;-70
2024/04/13 17:22:47;;;;;;;2.65;2.13;;;29.50;89.40;;;;;;10725092;26;20008;-67
2024/04/13 17:27:39;;;;;;;5.35;1.73;;;29.00;89.50;;;;;;10727916;26;20000;-71
2024/04/13 17:32:30;;;;;;;2.95;1.75;;;28.60;89.40;;;;;;10751369;26;20011;-70
2024/04/13 17:37:20;;;;;;;8.98;4.15;;;28.30;89.40;;;;;;10744805;26;20012;-68
2024/04/13 17:42:11;;;;;;;9.07;4.82;;;28.10;89.40;;;;;;10741971;26;20035;-68
2024/04/13 17:47:02;;;;;;;15.48;8.55;;;27.90;89.50;;;;;;10750128;26;20004;-69
2024/04/13 17:51:53;;;;;;;14.10;7.15;;;27.80;89.60;;;;;;10743042;26;20012;-69
2024/04/13 17:56:43;;;;;;;9.55;5.38;;;27.70;89.80;;;;;;10735107;26;20326;-69
2024/04/13 18:01:34;;;;;;;13.18;7.28;;;27.60;89.90;;;;;;10743246;26;20033;-69
2024/04/13 18:06:26;;;;;;;9.23;4.07;;;27.40;90.00;;;;;;10731468;26;20109;-72
2024/04/13 18:11:17;;;;;;;7.68;3.40;;;27.40;90.40;;;;;;10726211;26;20012;-72
2024/04/13 18:16:10;;;;;;;9.90;3.47;;;27.00;90.70;;;;;;10740712;26;20015;-72
2024/04/13 18:21:00;;;;;;;9.43;3.40;;;26.80;91.20;;;;;;10737758;26;20008;-71
2024/04/13 18:25:51;;;;;;;12.32;4.13;;;26.70;91.60;;;;;;10680630;26;20047;-74
2024/04/13 18:30:45;;;;;;;8.88;5.53;;;26.60;91.90;;;;;;10699713;26;20369;-71
2024/04/13 18:35:36;;;;;;;10.43;6.03;;;26.50;92.10;;;;;;10712752;26;20005;-71
2024/04/13 18:40:27;;;;;;;11.80;5.75;;;26.50;92.30;;;;;;10735161;26;20004;-72
2024/04/13 18:45:19;;;;;;;11.77;6.15;;;26.40;92.30;;;;;;10748061;26;20004;-74
2024/04/13 18:50:10;;;;;;;10.13;4.60;;;26.40;92.40;;;;;;10717091;26;20147;-72
2024/04/13 18:55:01;;;;;;;10.98;4.72;;;26.40;92.70;;;;;;10746629;26;20334;-72
2024/04/13 18:59:52;;;;;;;9.45;5.47;;;26.30;92.90;;;;;;10741934;26;20011;-72
2024/04/13 19:04:43;;;;;;;12.13;6.70;;;26.30;92.90;;;;;;10719497;26;20000;-72
2024/04/13 19:09:34;;;;;;;12.20;6.10;;;26.30;93.00;;;;;;10705229;26;20003;-73
2024/04/13 19:14:25;;;;;;;11.82;6.03;;;26.20;93.00;;;;;;10748904;26;20004;-72
2024/04/13 19:19:16;;;;;;;10.43;5.93;;;26.20;92.90;;;;;;10735181;26;20499;-73
2024/04/13 19:24:07;;;;;;;8.88;5.20;;;26.20;92.90;;;;;;10712432;26;20012;-72
2024/04/13 19:28:57;;;;;;;12.10;6.40;;;26.10;92.90;;;;;;10740027;26;20044;-71
2024/04/13 19:33:48;;;;;;;8.88;5.03;;;26.10;92.80;;;;;;10743109;26;20000;-73
2024/04/13 19:38:39;;;;;;;10.02;5.53;;;26.10;92.70;;;;;;10746619;26;20007;-72
2024/04/13 19:43:29;;;;;;;9.82;4.75;;;26.00;92.60;;;;;;10747973;26;20019;-73
2024/04/13 19:48:20;;;;;;;7.05;3.78;;;26.00;92.50;;;;;;10743584;26;20069;-71
2024/04/13 19:53:11;;;;;;;5.97;3.22;;;26.00;92.50;;;;;;10744817;26;20011;-71
2024/04/13 19:58:02;;;;;;;4.47;3.50;;;25.90;92.40;;;;;;10730151;26;20028;-71
2024/04/13 20:02:52;;;;;;;5.50;4.00;;;25.80;92.40;;;;;;10750823;26;20004;-71
2024/04/13 20:07:44;;;;;;;8.50;4.75;;;25.70;92.40;;;;;;10734443;26;20091;-73
2024/04/13 20:12:35;;;;;;;8.85;4.75;;;25.70;92.40;;;;;;10747236;26;20000;-71
2024/04/13 20:22:37;;;;;;;8.57;5.07;;;25.60;92.40;;;;;;10744338;26;20150;-76
2024/04/13 20:27:28;;;;;;;6.18;4.38;;;25.50;92.40;;;;;;10726803;26;20008;-77
2024/04/13 20:32:19;;;;;;;8.88;5.20;;;25.40;92.50;;;;;;10735363;26;20093;-77
2024/04/13 20:37:09;;;;;;;7.32;3.70;;;25.30;92.50;;;;;;10738985;26;19996;-73
2024/04/13 20:42:00;;;;;;;6.63;3.65;;;25.20;92.50;;;;;;10745312;26;20004;-77
2024/04/13 20:46:51;;;;;;;5.47;3.85;;;25.10;92.50;;;;;;10741969;26;20008;-76
2024/04/13 20:51:42;;;;;;;7.25;4.80;;;25.10;92.60;;;;;;10747990;26;19996;-76
2024/04/13 20:56:32;;;;;;;8.43;4.90;;;25.10;92.60;;;;;;10735422;26;20011;-74
2024/04/13 21:01:25;;;;;;;7.85;4.25;;;25.00;92.70;;;;;;10736717;26;20003;-73
2024/04/13 21:06:16;;;;;;;6.60;3.78;;;24.90;92.80;;;;;;10697255;26;20185;-73
2024/04/13 21:11:07;;;;;;;8.73;3.88;;;24.80;92.80;;;;;;10732315;26;20000;-71
2024/04/13 21:15:58;;;;;;;5.85;3.50;;;24.80;92.90;;;;;;10738573;26;20111;-71
2024/04/13 21:20:48;;;;;;;4.82;3.35;;;24.70;93.00;;;;;;10744578;26;20000;-71
2024/04/13 21:25:39;;;;;;;4.85;3.33;;;24.70;93.00;;;;;;10745028;26;20442;-71
2024/04/13 21:30:29;;;;;;;4.32;3.30;;;24.60;93.10;;;;;;10726951;26;20000;-74
2024/04/13 21:35:20;;;;;;;7.90;3.40;;;24.60;93.10;;;;;;10741925;26;19992;-72
2024/04/13 21:40:11;;;;;;;7.20;3.80;;;24.50;93.20;;;;;;10732962;26;20372;-71
2024/04/13 21:45:02;;;;;;;5.28;3.67;;;24.50;93.30;;;;;;10752740;21;20004;-77
2024/04/13 21:49:53;;;;;;;5.10;3.65;;;24.30;93.30;;;;;;10744707;26;20011;-75
2024/04/13 21:54:45;;;;;;;4.47;3.28;;;24.30;93.40;;;;;;10751826;26;20487;-71
2024/04/13 21:59:35;;;;;;;6.07;3.20;;;24.20;93.50;;;;;;10721617;26;20004;-69
2024/04/13 22:04:26;;;;;;;5.18;3.70;;;24.10;93.50;;;;;;10708852;26;20441;-75
2024/04/13 22:09:17;;;;;;;6.65;3.47;;;24.10;93.60;;;;;;10752596;26;20497;-71
2024/04/13 22:14:08;;;;;;;6.32;3.35;;;24.10;93.60;;;;;;10721786;26;19996;-71
2024/04/13 22:19:02;;;;;;;6.57;3.40;;;24.00;93.70;;;;;;10721289;26;20353;-77
2024/04/13 22:23:53;;;;;;;4.78;3.30;;;24.00;93.80;;;;;;10752629;26;20040;-74
2024/04/13 22:28:44;;;;;;;4.70;3.53;;;23.80;93.70;;;;;;10691120;26;20396;-73
2024/04/13 22:33:34;;;;;;;7.22;2.90;;;23.80;93.70;;;;;;10750759;26;20607;-73
2024/04/13 22:38:28;;;;;;;5.43;3.08;;;23.70;94.00;;;;;;10750136;26;20040;-69
2024/04/13 22:43:22;;;;;;;5.60;2.40;;;23.70;93.70;;;;;;10716428;26;20086;-72
2024/04/13 22:48:13;;;;;;;4.00;2.72;;;23.60;93.60;;;;;;10688359;21;20013;-71
2024/04/13 22:53:06;;;;;;;4.95;2.95;;;23.60;93.60;;;;;;10680512;26;20033;-71
2024/04/13 22:57:57;;;;;;;4.25;2.92;;;23.50;93.50;;;;;;10664916;26;20439;-72
2024/04/13 23:02:48;;;;;;;6.28;2.65;;;23.40;93.80;;;;;;10665850;26;20011;-70
2024/04/13 23:07:39;;;;;;;3.15;2.25;;;23.40;93.50;;;;;;10673631;26;20015;-71
2024/04/13 23:12:29;;;;;;;4.10;2.45;;;23.40;93.40;;;;;;10658983;26;20016;-70
2024/04/13 23:17:22;;;;;;;3.83;3.05;;;23.40;93.30;;;;;;10679684;26;20001;-70
2024/04/13 23:22:12;;;;;;;6.00;2.78;;;23.40;93.20;;;;;;10678596;26;20356;-71
2024/04/13 23:27:03;;;;;;;4.68;2.72;;;23.40;93.20;;;;;;10678882;26;19996;-72
2024/04/13 23:31:54;;;;;;;7.20;2.55;;;23.30;93.10;;;;;;10652232;26;20001;-71
2024/04/13 23:36:45;;;;;;;4.90;2.60;;;23.20;93.10;;;;;;10670889;26;20065;-72
2024/04/13 23:41:36;;;;;;;3.60;2.53;;;23.20;93.00;;;;;;10673285;26;20001;-70
2024/04/13 23:46:27;;;;;;;3.80;1.98;;;23.10;92.90;;;;;;10725428;21;20013;-72
2024/04/13 23:51:18;;;;;;;3.70;2.08;;;22.90;92.90;;;;;;10714034;26;20000;-74
2024/04/13 23:56:12;;;;;;;3.58;2.03;;;23.00;92.90;;;;;;10728344;26;19997;-69
